Tiempo atmosférico en la estación meteorológica de Écija, Sevilla (130 m.)



Fecha
DESCASC
Temp. máxima en grados centígrados (hora)
DESCASC
Temp. mínima en grados centígrados (hora)
DESCASC
Temp. media en grados centígrados
DESCASC
Racha de viento máxima en m/sg (hora)
DESCASC
Velocidad máxima media en intervalos de 10 minutos(hora)
DESCASC
Precipitaciones diarias en mm
DESCASC
Precipitaciones de 00:00 a 06:00 en mm
DESCASC
Precipitaciones de 06:00 a 12:00 en mm
DESCASC
Precipitaciones de 12:00 a 18:00 en mm
DESCASC
Precipitaciones de 18:00 a 24:00 en mm
DESCASC
18-08-2019 36.8 (18:40) 20.2 (07:50) 28.5 11.11 (22:20) 7.22 (20:30) 0 0 0 0 0
17-08-2019 41 (17:20) 20 (07:20) 30.5 8.06 (20:10) 5.83 (22:40) 0 0 0 0 0
16-08-2019 39.4 (16:40) 21 (07:50) 30.2 9.17 (22:00) 6.67 (22:00) 0 0 0 0 0
15-08-2019 39.6 (17:40) 20.3 (00:00) 29.9 9.44 (23:10) 6.11 (23:10) 0 0 0 0 0
14-08-2019 37.6 (18:20) 19.5 (00:00) 28.5 8.61 (23:40) 6.39 (23:40) 0 0 0 0 0
13-08-2019 36.1 (17:40) 16.9 (00:00) 26.5 7.22 (22:40) 4.72 (22:40) 0 0 0 0 0
12-08-2019 33.9 (17:40) 19 (00:00) 26.5 8.33 (23:10) 5.28 (23:40) 0 0 0 0 0
11-08-2019 34.2 (18:20) 17.3 (00:00) 25.8 10 (20:20) 6.67 (01:40) 0 0 0 0 0
10-08-2019 36.4 (17:40) 21.1 (00:00) 28.8 10.28 (15:40) 6.94 (22:30) 0 0 0 0 0
09-08-2019 35.8 (18:10) 18.3 (00:00) 27 10.28 (21:10) 7.22 (21:40) 0 0 0 0 0
08-08-2019 38.1 (17:20) 19.7 (00:00) 28.9 10.28 (16:20) 7.22 (23:59) 0 0 0 0 0
07-08-2019 35.3 (18:00) 18.4 (00:00) 26.8 9.44 (00:10) 6.39 (00:10) 0 0 0 0 0
06-08-2019 37.4 (16:50) 17.3 (00:00) 27.4 10.28 (23:30) 7.22 (23:10) 0 0 0 0 0
05-08-2019 38.4 (17:10) 18.8 (00:00) 28.6 10.83 (19:50) 8.06 (23:00) 0 0 0 0 0
04-08-2019 37.4 (18:40) 19 (00:00) 28.2 9.72 (22:00) 7.22 (23:50) 0 0 0 0 0
03-08-2019 36.5 (17:00) 17.6 (00:00) 27.1 9.17 (23:59) 6.67 (00:10) 0 0 0 0 0
02-08-2019 38.3 (17:30) 18 (00:00) 28.1 9.72 (19:40) 6.39 (23:59) 0 0 0 0 0
01-08-2019 36.6 (18:40) 21.7 (00:00) 29.1 11.39 (23:40) 6.67 (23:59) 0 0 0 0 0
31-07-2019 37.4 (17:30) 18.7 (00:00) 28.1 10.83 (22:10) 7.22 (22:20) 0 0 0 0 0
30-07-2019 36.6 (19:10) 19.5 (00:00) 28 6.39 (12:40) 4.72 (04:50) 0 0 0 0 0
29-07-2019 35.9 (18:40) 17.6 (00:00) 26.8 9.72 (21:40) 6.39 (21:50) 0 0 0 0 0
28-07-2019 33.2 (19:10) 19.9 (00:00) 26.6 11.11 (21:40) 6.67 (00:20) 0 0 0 0 0
27-07-2019 29.7 (15:20) 17.9 (00:00) 23.8 12.5 (19:20) 8.61 (19:30) 0 0 0 0 0
26-07-2019 33.1 (18:40) 21 (00:00) 27 13.89 (20:30) 9.72 (20:40) 0 0 0 0 0
25-07-2019 37.4 (17:10) 21.3 (00:00) 29.4 11.94 (19:30) 8.33 (23:00) 0 0 0 0 0
24-07-2019 39.4 (16:20) 22.4 (00:00) 30.9 10 (16:50) 6.67 (23:59) 0 0 0 0 0
23-07-2019 -- (--) -- (--) -- 11.11 (17:10) 6.67 (20:40) 0 0 0 0 0
22-07-2019 -- (--) -- (--) -- 9.72 (23:50) 6.94 (20:50) 0 0 0 0 0
21-07-2019 -- (--) -- (--) -- 10.28 (00:20) 6.67 (22:20) 0 0 0 0 0

Gráficas

Temp. máximas Temp. mínimas Temp. medias Precipitaciones Rachas de viento máximas Velocidades máximas media en intervalos de 10 minutos

Datos horarios

Fecha y hora oficial Temperatura (ºC) Velocidad del viento (km/h) Dirección del viento Racha (km/h) Dirección de racha Precipitación (mm) Presión (hPa) Tendencia (hPa) Humedad (%)
2019-08-19 23:00:00 26.9 17 Sudoeste 30 Sudoeste 0 999 1.6 41
2019-08-19 22:00:00 28.3 15 Sudoeste 31 Sudoeste 0 998.2 0.9 38
2019-08-19 21:00:00 30.9 20 Sudoeste 31 Sudoeste 0 997.9 0.4 38
2019-08-19 20:00:00 33.5 18 Sudoeste 33 Sudoeste 0 997.4 -0.7 40
2019-08-19 19:00:00 35.1 18 Oeste 34 Sudoeste 0 997.3 -1.3 37
2019-08-19 18:00:00 35.9 18 Oeste 41 Oeste 0 997.5 -1.4 35
2019-08-19 17:00:00 35.7 14 Oeste 62 Oeste 0 998.1 -1.3 35
2019-08-19 16:00:00 35.6 12 Oeste 30 Oeste 0 998.6 -1.2 37
2019-08-19 15:00:00 34.3 9 Oeste 25 Oeste 0 998.9 -1.3 38
2019-08-19 14:00:00 33.5 9 Oeste 20 Oeste 0 999.4 -0.8 42
2019-08-19 13:00:00 31.9 2 Norte 14 Sur 0 999.8 -0.7 48
2019-08-19 12:00:00 29.4 6 Sur 18 Sudoeste 0 1000.2 -0.3 52
2019-08-19 11:00:00 27.2 6 Sudeste 13 Sur 0 1000.2 0 57
2019-08-19 10:00:00 24.1 7 Sur 10 Sur 0 1000.5 0.9 58
2019-08-19 09:00:00 21.3 0 Calma 3 Sudoeste 0 1000.5 1 60
2019-08-19 08:00:00 19.2 4 Sudoeste 6 Sudoeste 0 1000.2 0.7 63
2019-08-19 07:00:00 19.2 0 Calma 5 Oeste 0 999.6 0 61
2019-08-19 06:00:00 20 0 Calma 5 Sudeste 0 999.5 -0.3 61
2019-08-19 05:00:00 20.6 0 Calma 8 Sudeste 0 999.5 -0.3 59
2019-08-19 04:00:00 21.5 2 Sur 7 Sudeste 0 999.6 -0.1 56
2019-08-19 03:00:00 22.9 0 Calma 9 Sudoeste 0 999.8 0 55
2019-08-19 02:00:00 23.9 8 Sudoeste 19 Sudoeste 0 999.8 0.7 55
2019-08-19 01:00:00 24.6 12 Sudoeste 26 Sudoeste 0 999.7 1.8 52
2019-08-19 00:00:00 25.3 15 Sudoeste 27 Oeste 0 999.8 2.6 49
2019-08-18 23:00:00 27 19 Oeste 40 Oeste 0 999.1 2.3 46
2019-08-18 22:00:00 28.9 22 Oeste 39 Sudoeste 0 997.9 1.4 41
2019-08-18 21:00:00 31.4 24 Sudoeste 39 Oeste 0 997.2 0.1 38
2019-08-18 20:00:00 34.8 20 Oeste 36 Oeste 0 996.8 -0.5 35
2019-08-18 19:00:00 36.3 18 Oeste 33 Sudoeste 0 996.5 -1.3 34
2019-08-18 18:00:00 36.4 21 Oeste 36 Oeste 0 997.1 -1 35
2019-08-18 17:00:00 36.1 19 Oeste 38 Sudoeste 0 997.3 -1.4 36
2019-08-18 16:00:00 36.2 18 Oeste 33 Sudoeste 0 997.8 -1.4 35
2019-08-18 15:00:00 35.2 18 Oeste 32 Oeste 0 998.1 -1.2 36
2019-08-18 14:00:00 34.4 14 Sudoeste 27 Sudoeste 0 998.7 -0.4 37
2019-08-18 13:00:00 33.1 9 Oeste 21 Oeste 0 999.2 0.4 38
2019-08-18 12:00:00 31.6 7 Oeste 21 Oeste 0 999.3 1 40
2019-08-18 11:00:00 29.3 15 Oeste 23 Oeste 0 999.1 1.2 41
2019-08-18 10:00:00 26.7 5 Sudeste 8 Sudeste 0 998.8 1.5 44
2019-08-18 09:00:00 23.5 3 Sudeste 5 Sur 0 998.3 1.1 45
2019-08-18 08:00:00 20.4 0 Calma 6 Sudoeste 0 997.9 0.4 46
2019-08-18 07:00:00 20.7 4 Sur 5 Sur 0 997.3 -0.5 45
2019-08-18 06:00:00 21.7 0 Calma 9 Norte 0 997.2 -0.8 43
2019-08-18 05:00:00 22.5 0 Calma 5 Noroeste 0 997.5 -0.7 42
2019-08-18 04:00:00 23.5 2 Noroeste 10 Sur 0 997.8 -0.4 41
2019-08-18 03:00:00 25.5 8 Sur 21 Sudoeste 0 998 0.4 40
2019-08-18 02:00:00 27.1 17 Sudoeste 28 Sudoeste 0 998.2 1 39
2019-08-18 01:00:00 28.7 17 Sudoeste 26 Sudoeste 0 998.2 1.6 38
2019-08-18 00:00:00 29.7 16 Sudoeste 26 Sudoeste 0 997.6 1.8 36
2019-08-17 23:00:00 31.3 16 Sudoeste 28 Sudoeste 0 997.2 1.8 34
2019-08-17 22:00:00 33.3 17 Sudoeste 28 Sudoeste 0 996.6 0.9 33
2019-08-17 21:00:00 36.3 17 Oeste 29 Noroeste 0 995.8 -0.3 29
2019-08-17 20:00:00 38.6 18 Noroeste 26 Noroeste 0 995.4 -1 27
2019-08-17 19:00:00 40.1 10 Oeste 24 Oeste 0 995.7 -1.5 27
2019-08-17 18:00:00 40.7 15 Oeste 26 Oeste 0 996.1 -2 26
2019-08-17 17:00:00 40.7 8 Oeste 22 Oeste 0 996.4 -2.6 27
2019-08-17 16:00:00 39.9 5 Sudeste 19 Este 0 997.2 -1.6 28
2019-08-17 15:00:00 38.5 5 Sudeste 15 Sudoeste 0 998.1 -2.3 30
2019-08-17 14:00:00 37.2 8 Sudeste 17 Sudeste 0 999 -1.7 31
2019-08-17 13:00:00 35.4 5 Este 19 Sudeste 0 998.8 -1.9 33
2019-08-17 12:00:00 33 6 Este 15 Sudeste 0 1000.4 -0.2 38
2019-08-17 11:00:00 29.9 5 Este 10 Sudeste 0 1000.7 0.1 44
2019-08-17 10:00:00 25.7 6 Sudeste 10 Sudeste 0 1000.7 0.2 48
2019-08-17 09:00:00 22.8 6 Sudeste 9 Sudeste 0 1000.6 0.3 51
2019-08-17 08:00:00 20.4 4 Sudeste 7 Sudeste 0 1000.6 0.3 52
2019-08-17 07:00:00 20.3 0 Calma 4 Sur 0 1000.5 0 49
2019-08-17 06:00:00 21.3 0 Calma 6 Sur 0 1000.3 -0.2 48
2019-08-17 05:00:00 22 3 Sur 5 Sur 0 1000.3 -0.5 46
2019-08-17 04:00:00 22.9 3 Sur 12 Sudoeste 0 1000.5 -0.2 46
2019-08-17 03:00:00 23.7 7 Sudoeste 10 Sudoeste 0 1000.5 0.1 45
2019-08-17 02:00:00 26 5 Sur 9 Sur 0 1000.8 0.9 42
2019-08-17 01:00:00 27.9 8 Sudoeste 26 Sudoeste 0 1000.7 1.5 40
2019-08-17 00:00:00 29 18 Sudoeste 32 Oeste 0 1000.4 1.8 38
2019-08-16 23:00:00 30.6 18 Oeste 31 Sudoeste 0 999.9 1.6 36
2019-08-16 22:00:00 32.5 24 Sudoeste 33 Oeste 0 999.2 0.8 34
2019-08-16 21:00:00 35.3 15 Oeste 26 Oeste 0 998.6 0.1 32
2019-08-16 20:00:00 37.7 14 Oeste 26 Oeste 0 998.3 -1 30
2019-08-16 19:00:00 38.6 12 Oeste 29 Oeste 0 998.4 -1.4 30
2019-08-16 18:00:00 38.8 10 Oeste 28 Oeste 0 998.5 -1.7 30
2019-08-16 17:00:00 39.1 8 Sudoeste 25 Sur 0 999.3 -1.6 30
2019-08-16 16:00:00 38.9 10 Sudoeste 24 Sudoeste 0 999.8 -1.6 31
2019-08-16 15:00:00 37.5 8 Oeste 31 Sudoeste 0 1000.2 -1.9 33
2019-08-16 14:00:00 36.4 3 Sur 15 Oeste 0 1000.9 -1.3 35
2019-08-16 13:00:00 34.5 0 Calma 10 Este 0 1001.4 -1.1 38
2019-08-16 12:00:00 32.5 3 Sudeste 10 Sudeste 0 1002.1 0.2 41
2019-08-16 11:00:00 29.4 5 Este 9 Este 0 1002.2 0.5 45
2019-08-16 10:00:00 26.9 3 Sudeste 6 Sudeste 0 1002.5 1.4 50
2019-08-16 09:00:00 23.3 2 Sudeste 5 Sudeste 0 1001.9 0.8 55
2019-08-16 08:00:00 21.1 0 Calma 5 Sur 0 1001.7 0.5 55
2019-08-16 07:00:00 21.6 2 Sur 5 Sur 0 1001.1 -0.3 54
2019-08-16 06:00:00 22.6 0 Calma 4 Sudeste 0 1001.1 -0.5 52
2019-08-16 05:00:00 23.8 0 Calma 17 Sudoeste 0 1001.2 -0.3 49
2019-08-16 04:00:00 24.4 8 Sudoeste 15 Sudoeste 0 1001.4 -0.2 48
2019-08-16 03:00:00 25.3 7 Sur 12 Sudoeste 0 1001.6 0.6 46
2019-08-16 02:00:00 26.7 5 Sur 18 Sudoeste 0 1001.5 0.8 44
2019-08-16 01:00:00 28.2 9 Sudoeste 26 Sudoeste 0 1001.6 1.9 42
2019-08-16 00:00:00 29.6 21 Sudoeste 34 Sudoeste 0 1001 2.1 41
2019-08-15 23:00:00 31 22 Sudoeste 31 Sudoeste 0 1000.7 2.1 37
2019-08-15 22:00:00 33.3 11 Sudoeste 23 Sudoeste 0 999.7 1.1 30
2019-08-15 21:00:00 36.1 9 Sudoeste 12 Sudoeste 0 998.9 -0.1 27
2019-08-15 20:00:00 38.3 9 Sudeste 15 Sudeste 0 998.6 -0.9 27
2019-08-15 19:00:00 39.1 4 Sur 16 Sudeste 0 998.6 -1.6 27
2019-08-15 18:00:00 39.2 8 Sur 15 Sudeste 0 999 -1.7 27
2019-08-15 17:00:00 38.6 7 Este 17 Este 0 999.5 -1.9 27
2019-08-15 16:00:00 38 7 Sudeste 16 Sudeste 0 1000.2 -1.8 29
2019-08-15 15:00:00 37 2 Sudeste 16 Sudeste 0 1000.7 -1.8 32
2019-08-15 14:00:00 35.5 4 Sudeste 14 Sudeste 0 1001.4 -1.3 36
2019-08-15 13:00:00 33.6 4 Este 12 Este 0 1002 -0.8 42
2019-08-15 12:00:00 31 3 Norte 12 Este 0 1002.5 0 50
2019-08-15 11:00:00 28.6 3 Norte 11 Este 0 1002.7 0.2 56
2019-08-15 10:00:00 25.2 4 Este 9 Sudeste 0 1002.8 0.9 62
2019-08-15 09:00:00 22.8 2 Este 8 Sudeste 0 1002.5 0.8 65
2019-08-15 08:00:00 20.5 0 Calma 6 Sudeste 0 1002.5 0.8 67
2019-08-15 07:00:00 21.1 2 Sudeste 5 Sudeste 0 1001.9 0.1 64
2019-08-15 06:00:00 22.2 4 Noroeste 6 Noroeste 0 1001.7 -0.1 65
2019-08-15 05:00:00 23.1 3 Sudeste 12 Oeste 0 1001.7 -0.3 63
2019-08-15 04:00:00 24.4 3 Oeste 9 Sudoeste 0 1001.8 0.1 61
2019-08-15 03:00:00 25.5 0 Calma 20 Oeste 0 1001.8 0.3 57
2019-08-15 02:00:00 26.6 9 Sudoeste 29 Sudoeste 0 1002 1.1 53
2019-08-15 01:00:00 27.7 18 Sudoeste 27 Sudoeste 0 1001.7 1.6 48
2019-08-15 00:00:00 29.1 19 Sudoeste 31 Sudoeste 0 1001.5 2 45
2019-08-14 23:00:00 30.5 14 Sudoeste 18 Sudoeste 0 1000.9 1.4 36
2019-08-14 22:00:00 32 7 Sudoeste 8 Sudoeste 0 1000.1 0.2 32
2019-08-14 21:00:00 35.4 4 Sur 8 Sur 0 999.5 -0.8 30
2019-08-14 20:00:00 36.8 6 Sudoeste 15 Sur 0 999.5 -1.1 30
2019-08-14 19:00:00 37 9 Sur 24 Nordeste 0 999.9 -1.4 30
2019-08-14 18:00:00 37.1 4 Oeste 18 Norte 0 1000.3 -1.6 31
2019-08-14 17:00:00 36.8 4 Sudoeste 20 Noroeste 0 1000.6 -2 32
2019-08-14 16:00:00 36.1 6 Nordeste 19 Este 0 1001.3 -2.2 34
2019-08-14 15:00:00 34.9 2 Oeste 15 Este 0 1001.9 -1.9 38
2019-08-14 14:00:00 32.9 4 Noroeste 15 Sur 0 1002.6 -1.4 42
2019-08-14 13:00:00 32 7 Este 19 Sudeste 0 1003.5 -0.6 42
2019-08-14 12:00:00 30.1 4 Norte 12 Norte 0 1003.8 0 51
2019-08-14 11:00:00 28.5 2 Este 11 Este 0 1004 0.4 53
2019-08-14 10:00:00 26.3 3 Este 7 Este 0 1004.1 1.1 49
2019-08-14 09:00:00 22.5 0 Calma 3 Sudeste 0 1003.8 0.8 53
2019-08-14 08:00:00 19.8 0 Calma 11 Sudeste 0 1003.6 0.8 53
2019-08-14 07:00:00 20.3 0 Calma 8 Nordeste 0 1003 0.2 53
2019-08-14 06:00:00 20.9 3 Norte 14 Sudoeste 0 1003 0.4 50
2019-08-14 05:00:00 21.6 0 Calma 13 Sudoeste 0 1002.8 0 49
2019-08-14 04:00:00 22.3 10 Sudoeste 15 Sudoeste 0 1002.8 0.4 46
2019-08-14 03:00:00 22.5 8 Sudoeste 20 Sudoeste 0 1002.6 0.6 44
2019-08-14 02:00:00 24.4 13 Sudoeste 24 Sudoeste 0 1002.8 1.4 42
2019-08-14 01:00:00 25.6 14 Sudoeste 22 Sudoeste 0 1002.4 2.1 38
2019-08-14 00:00:00 26.6 13 Sudoeste 21 Sudoeste 0 1002 2.7 36
2019-08-13 23:00:00 28.4 15 Sudoeste 26 Sudoeste 0 1001.4 2.4 33
2019-08-13 22:00:00 30.8 11 Sur 15 Sur 0 1000.3 1.2 38
2019-08-13 21:00:00 33.3 6 Oeste 12 Sudoeste 0 999.3 0.1 29
2019-08-13 20:00:00 35.4 4 Oeste 21 Oeste 0 999 -0.6 30
2019-08-13 19:00:00 35.3 11 Noroeste 22 Noroeste 0 999.1 -1.2 32
2019-08-13 18:00:00 35.5 4 Noroeste 19 Sur 0 999.2 -1.6 33
2019-08-13 17:00:00 35.6 9 Sur 20 Sur 0 999.6 -1.7 34
2019-08-13 16:00:00 34.9 12 Este 24 Este 0 1000.3 -1.4 35
2019-08-13 15:00:00 34.2 7 Este 19 Sudeste 0 1000.8 -1.1 36
2019-08-13 14:00:00 33.3 6 Sudeste 24 Sudeste 0 1001.3 -0.6 39
2019-08-13 13:00:00 31.6 3 Noroeste 17 Nordeste 0 1001.7 -0.3 43
2019-08-13 12:00:00 30.2 5 Nordeste 17 Nordeste 0 1001.9 0.2 44
2019-08-13 11:00:00 27.4 5 Este 12 Sudeste 0 1001.9 0.7 46
2019-08-13 10:00:00 24.1 3 Este 9 Norte 0 1002 1.5 44
2019-08-13 09:00:00 20.1 0 Calma 4 Sudeste 0 1001.7 1.5 45
2019-08-13 08:00:00 17.2 0 Calma 6 Sudoeste 0 1001.2 0.8 47
2019-08-13 07:00:00 17 5 Sur 8 Sudeste 0 1000.5 0.1 46
2019-08-13 06:00:00 17.7 7 Sudeste 9 Sudeste 0 1000.2 -0.4 46
2019-08-13 05:00:00 18.3 4 Sudeste 10 Sudeste 0 1000.4 0.2 46
2019-08-13 04:00:00 20.7 4 Sudoeste 13 Sudoeste 0 1000.4 0.1 42
2019-08-13 03:00:00 22 4 Sudeste 10 Sudoeste 0 1000.6 0.6 41
2019-08-13 02:00:00 23.7 4 Sur 12 Nordeste 0 1000.2 0.4 36
2019-08-13 01:00:00 24.4 3 Este 20 Oeste 0 1000.3 1.2 35
2019-08-13 00:00:00 25.8 14 Oeste 30 Oeste 0 1000 1.6 33
2019-08-12 23:00:00 26.8 17 Oeste 26 Oeste 0 999.8 1.9 31
2019-08-12 22:00:00 28.6 13 Oeste 20 Oeste 0 999.1 1 24
2019-08-12 21:00:00 30.5 8 Oeste 12 Oeste 0 998.4 0 24
2019-08-12 20:00:00 32.6 6 Noroeste 18 Noroeste 0 997.9 -0.9 24
2019-08-12 19:00:00 33.9 9 Norte 21 Noroeste 0 998.1 -1.5 24
2019-08-12 18:00:00 33.6 9 Norte 23 Norte 0 998.4 -2 24
2019-08-12 17:00:00 33 9 Norte 24 Norte 0 998.8 -2.3 24
2019-08-12 16:00:00 32.7 8 Nordeste 25 Noroeste 0 999.6 -2 25
2019-08-12 15:00:00 31.8 6 Nordeste 24 Nordeste 0 1000.4 -1.5 27
2019-08-12 14:00:00 30.9 6 Nordeste 19 Nordeste 0 1001.1 -0.9 30
2019-08-12 13:00:00 28.9 10 Este 24 Noroeste 0 1001.6 -0.5 33
2019-08-12 12:00:00 26.8 9 Norte 18 Norte 0 1001.9 0.2 38
2019-08-12 11:00:00 24.5 8 Norte 17 Norte 0 1002 0.6 43
2019-08-12 10:00:00 23.1 5 Norte 22 Norte 0 1002.1 1.3 46
2019-08-12 09:00:00 20.9 14 Norte 22 Norte 0 1001.7 0.9 48
2019-08-12 08:00:00 19.7 10 Norte 22 Norte 0 1001.4 0.6 46
2019-08-12 07:00:00 20.5 15 Norte 26 Norte 0 1000.8 -0.5 44
2019-08-12 06:00:00 21.1 12 Norte 23 Norte 0 1000.8 -0.9 42
2019-08-12 05:00:00 21.1 14 Norte 22 Norte 0 1000.8 -0.9 40
2019-08-12 04:00:00 21.2 13 Noroeste 18 Noroeste 0 1001.3 -0.5 38
2019-08-12 03:00:00 20.6 11 Noroeste 13 Noroeste 0 1001.7 0.1 36
2019-08-12 02:00:00 21.7 3 Norte 8 Nordeste 0 1001.7 0.2 35
2019-08-12 01:00:00 22.6 9 Noroeste 18 Noroeste 0 1001.8 1.2 33
2019-08-12 00:00:00 24.1 14 Noroeste 19 Noroeste 0 1001.6 1.8 32
2019-08-11 23:00:00 25.7 16 Noroeste 33 Noroeste 0 1001.5 2.3 30
2019-08-11 22:00:00 27.9 15 Noroeste 23 Noroeste 0 1000.6 1.3 28
2019-08-11 21:00:00 29.9 18 Norte 36 Noroeste 0 999.8 0.4 26
2019-08-11 20:00:00 31.8 13 Oeste 26 Noroeste 0 999.2 -1 27
2019-08-11 19:00:00 33.5 16 Noroeste 29 Noroeste 0 999.3 -1.6 27
2019-08-11 18:00:00 33.9 13 Oeste 30 Oeste 0 999.4 -2.3 27
2019-08-11 17:00:00 33 9 Oeste 29 Norte 0 1000.2 -2.3 28
2019-08-11 16:00:00 32.4 14 Oeste 28 Oeste 0 1000.9 -2.1 31
2019-08-11 15:00:00 31.6 6 Oeste 21 Noroeste 0 1001.7 -1.2 32
2019-08-11 14:00:00 30 9 Noroeste 25 Noroeste 0 1002.5 -0.3 35
2019-08-11 13:00:00 29 12 Noroeste 22 Noroeste 0 1003 0.4 36
2019-08-11 12:00:00 26.9 7 Norte 21 Norte 0 1002.9 0.4 41
2019-08-11 11:00:00 23.4 11 Norte 24 Noroeste 0 1002.8 0.6 48
2019-08-11 10:00:00 23.4 16 Norte 25 Norte 0 1002.6 1 48
2019-08-11 09:00:00 20.8 3 Sudeste 7 Sudeste 0 1002.5 0.9 58
2019-08-11 08:00:00 18.2 7 Oeste 10 Noroeste 0 1002.2 1.1 60
2019-08-11 07:00:00 18.2 3 Sudeste 8 Sudoeste 0 1001.6 0.6 57
2019-08-11 06:00:00 19.8 4 Oeste 7 Sudoeste 0 1001.6 0.6 56
2019-08-11 05:00:00 20.8 0 Calma 23 Oeste 0 1001.1 -0.2 53
2019-08-11 04:00:00 21.3 12 Oeste 24 Sudoeste 0 1001 -0.3 52
2019-08-11 03:00:00 22.5 15 Oeste 33 Oeste 0 1001 0.2 49
2019-08-11 02:00:00 23.5 21 Sudoeste 32 Oeste 0 1001.3 0.6 46
2019-08-11 01:00:00 24 13 Sudoeste 31 Sudoeste 0 1001.3 1.3 45
2019-08-11 00:00:00 25.3 17 Sudoeste 31 Sudoeste 0 1000.8 1.6 44
2019-08-10 23:00:00 27.4 24 Sudoeste 36 Sudoeste 0 1000.7 1.9 41
2019-08-10 22:00:00 30 15 Oeste 27 Sudoeste 0 1000 1.1 40
2019-08-10 21:00:00 32.5 12 Oeste 28 Oeste 0 999.2 -0.2 38
2019-08-10 20:00:00 34.1 17 Oeste 28 Oeste 0 998.8 -1.3 36
2019-08-10 19:00:00 36 10 Oeste 24 Oeste 0 998.9 -2.2 36
2019-08-10 18:00:00 35.6 8 Oeste 26 Sudoeste 0 999.4 -2.4 37
2019-08-10 17:00:00 35.3 9 Oeste 30 Oeste 0 1000.1 -2.6 38
2019-08-10 16:00:00 35 5 Oeste 37 Este 0 1001.1 -2.4 41
2019-08-10 15:00:00 33.7 4 Oeste 16 Oeste 0 1001.8 -2.2 44
2019-08-10 14:00:00 32.2 5 Nordeste 13 Este 0 1002.7 -1.3 49
2019-08-10 13:00:00 30.4 3 Nordeste 15 Este 0 1003.5 -0.2 54
2019-08-10 12:00:00 29 4 Sur 16 Sudeste 0 1004 0.6 57
2019-08-10 11:00:00 27.4 2 Nordeste 11 Norte 0 1004 0.7 59
2019-08-10 10:00:00 25.7 5 Nordeste 14 Norte 0 1003.7 0.1 63
2019-08-10 09:00:00 23.5 10 Noroeste 13 Noroeste 0 1003.4 0.6 75
2019-08-10 08:00:00 21.4 4 Noroeste 7 Noroeste 0 1003.3 0.5 85
2019-08-10 07:00:00 21.7 0 Calma 11 Oeste 0 1003.6 0.7 81
2019-08-10 06:00:00 22.1 8 Oeste 19 Oeste 0 1002.8 0 80
2019-08-10 05:00:00 22.6 9 Oeste 21 Sudoeste 0 1002.8 0 79
2019-08-10 04:00:00 23.1 15 Sudoeste 23 Oeste 0 1002.9 0.1 78
2019-08-10 03:00:00 23.5 14 Sudoeste 24 Sudoeste 0 1002.8 0.2 76
2019-08-10 02:00:00 24.2 16 Oeste 27 Sudoeste 0 1002.8 0.8 74
2019-08-10 01:00:00 24.9 15 Sudoeste 29 Sudoeste 0 1002.8 2 70
2019-08-10 00:00:00 25.5 19 Sudoeste 27 Sudoeste 0 1002.6 2.7 67
2019-08-09 23:00:00 26.5 16 Sudoeste 35 Oeste 0 1002 2.5 61
2019-08-09 22:00:00 27.8 23 Oeste 37 Sudoeste 0 1000.8 1.3 57
2019-08-09 21:00:00 30.6 22 Oeste 35 Sudoeste 0 999.9 0.1 47
2019-08-09 20:00:00 33.6 19 Sudoeste 31 Sudoeste 0 999.5 -0.7 41
2019-08-09 19:00:00 34.9 17 Sudoeste 37 Oeste 0 999.5 -1.6 38
2019-08-09 18:00:00 35.7 14 Oeste 32 Oeste 0 999.8 -1.7 39
2019-08-09 17:00:00 35 14 Oeste 33 Oeste 0 1000.2 -1.8 40
2019-08-09 16:00:00 34.7 14 Oeste 29 Sudoeste 0 1001.1 -1.2 41
2019-08-09 15:00:00 33.8 12 Oeste 24 Sudoeste 0 1001.5 -1.1 45
2019-08-09 14:00:00 32.8 10 Sudoeste 30 Oeste 0 1002 -0.4 48
2019-08-09 13:00:00 31.1 6 Oeste 16 Oeste 0 1002.3 -0.2 52
2019-08-09 12:00:00 29 0 Calma 18 Sudoeste 0 1002.6 0.1 58
2019-08-09 11:00:00 26.6 3 Oeste 9 Sudoeste 0 1002.4 0.4 63
2019-08-09 10:00:00 24 5 Sudeste 11 Sudeste 0 1002.5 0.8 62
2019-08-09 09:00:00 20.9 4 Sudeste 8 Sudeste 0 1002.5 1.2 63
2019-08-09 08:00:00 18.9 0 Calma 4 Sudeste 0 1002 0.6 65
2019-08-09 07:00:00 18.8 0 Calma 6 Sudeste 0 1001.7 0.4 65
2019-08-09 06:00:00 19.5 0 Calma 6 Sudeste 0 1001.3 0.1 64
2019-08-09 05:00:00 20.8 0 Calma 9 Oeste 0 1001.4 0.6 65
2019-08-09 04:00:00 21.8 0 Calma 11 Oeste 0 1001.3 0.9 63
2019-08-09 03:00:00 22.3 5 Sudoeste 23 Sudoeste 0 1001.2 1.5 62
2019-08-09 02:00:00 22.5 5 Sudoeste 29 Sudoeste 0 1000.8 1.9 60
2019-08-09 01:00:00 23.9 13 Sudoeste 35 Sudoeste 0 1000.4 2.7 54
2019-08-09 00:00:00 25.3 26 Sudoeste 36 Oeste 0 999.7 2.4 48
2019-08-08 23:00:00 27.5 18 Oeste 35 Oeste 0 998.9 1.8 43
2019-08-08 22:00:00 30.6 15 Oeste 27 Sudoeste 0 997.7 0.5 38
2019-08-08 21:00:00 33.4 17 Sudoeste 27 Sudoeste 0 997.3 0.1 34
2019-08-08 20:00:00 35.8 19 Sudoeste 30 Sudoeste 0 997.1 -0.4 31
2019-08-08 19:00:00 37.2 22 Sudoeste 32 Sudoeste 0 997.2 -0.7 27
2019-08-08 18:00:00 37.9 13 Sudoeste 34 Oeste 0 997.2 -1.3 28
2019-08-08 17:00:00 37.3 13 Oeste 37 Sudoeste 0 997.5 -1.5 28
2019-08-08 16:00:00 36.9 10 Oeste 25 Oeste 0 997.9 -1.7 31
2019-08-08 15:00:00 35.9 2 Sudoeste 16 Sudoeste 0 998.5 -1.6 35
2019-08-08 14:00:00 34.3 4 Nordeste 13 Este 0 999 -1.2 38
2019-08-08 13:00:00 32.3 4 Sur 14 Este 0 999.6 -0.6 43
2019-08-08 12:00:00 29.9 4 Este 12 Este 0 1000.1 -0.2 49
2019-08-08 11:00:00 27.6 3 Este 12 Nordeste 0 1000.2 0.4 55
2019-08-08 10:00:00 25.4 4 Este 8 Este 0 1000.2 0.6 59
2019-08-08 09:00:00 22 5 Sudeste 7 Sudeste 0 1000.3 1 63
2019-08-08 08:00:00 20.1 0 Calma 10 Sudeste 0 999.8 0.7 65
2019-08-08 07:00:00 20.7 3 Sudeste 8 Sudeste 0 999.6 0.3 63
2019-08-08 06:00:00 21.8 5 Sudeste 11 Sur 0 999.3 -0.1 61
2019-08-08 05:00:00 23 4 Nordeste 18 Oeste 0 999.1 -0.5 60
2019-08-08 04:00:00 23.8 12 Oeste 24 Sudoeste 0 999.3 -0.3 57
2019-08-08 03:00:00 24.2 17 Sudoeste 25 Sudoeste 0 999.4 0.1 56
2019-08-08 02:00:00 24.9 14 Oeste 23 Oeste 0 999.6 0.8 54
2019-08-08 01:00:00 26.6 15 Sudoeste 22 Sudoeste 0 999.6 1.9 50
2019-08-08 00:00:00 28.2 12 Oeste 24 Oeste 0 999.3 2 46
2019-08-07 23:00:00 29.5 16 Oeste 29 Oeste 0 998.8 1.9 44
2019-08-07 22:00:00 30.9 10 Noroeste 13 Noroeste 0 997.7 0.6 39
2019-08-07 21:00:00 32.2 7 Noroeste 13 Noroeste 0 997.3 -0.3 37
2019-08-07 20:00:00 33.3 3 Norte 17 Noroeste 0 996.9 -0.7 37
2019-08-07 19:00:00 34.1 10 Noroeste 21 Noroeste 0 997.1 -0.9 36
2019-08-07 18:00:00 35.3 9 Noroeste 21 Noroeste 0 997.6 -0.8 35
2019-08-07 17:00:00 34.4 9 Noroeste 21 Noroeste 0 997.6 -1.2 35
2019-08-07 16:00:00 33.8 8 Noroeste 22 Oeste 0 998 -1.2 36
2019-08-07 15:00:00 34.1 4 Oeste 19 Oeste 0 998.4 -1.1 39
2019-08-07 14:00:00 33 5 Oeste 15 Noroeste 0 998.8 -0.4 42
2019-08-07 13:00:00 30.7 5 Nordeste 14 Nordeste 0 999.2 -0.1 45
2019-08-07 12:00:00 29.7 4 Este 13 Este 0 999.5 0.6 47
2019-08-07 11:00:00 26.3 5 Sudeste 10 Sudeste 0 999.2 0.6 49
2019-08-07 10:00:00 24.7 4 Sudeste 9 Sudeste 0 999.3 1.4 49
2019-08-07 09:00:00 20.7 4 Sudeste 8 Sudeste 0 998.9 1.1 52
2019-08-07 08:00:00 18.8 3 Sur 8 Sur 0 998.6 0.8 52
2019-08-07 07:00:00 19 0 Calma 7 Sudeste 0 997.9 0.2 53
2019-08-07 06:00:00 19.6 5 Sudeste 7 Sudeste 0 997.8 0.3 49
2019-08-07 05:00:00 20.6 4 Noroeste 9 Oeste 0 997.8 0.1 48
2019-08-07 04:00:00 22 0 Calma 9 Nordeste 0 997.7 0.1 46
2019-08-07 03:00:00 23.1 4 Nordeste 22 Sudoeste 0 997.5 0 45
2019-08-07 02:00:00 24.3 0 Calma 24 Sudoeste 0 997.7 0.8 44
2019-08-07 01:00:00 25.2 12 Sudoeste 34 Sudoeste 0 997.6 1.6 43
2019-08-07 00:00:00 26.6 19 Oeste 37 Sudoeste 0 997.5 2.2 41
2019-08-06 23:00:00 28.7 25 Sudoeste 36 Sudoeste 0 996.9 1.8 33
2019-08-06 22:00:00 30.8 18 Oeste 28 Sudoeste 0 996 1 30
2019-08-06 21:00:00 33.2 9 Oeste 26 Oeste 0 995.3 -0.2 24
2019-08-06 20:00:00 36.3 16 Oeste 29 Oeste 0 995.1 -1 24
2019-08-06 19:00:00 37.1 13 Oeste 28 Oeste 0 995 -1.9 26
2019-08-06 18:00:00 37.2 13 Oeste 26 Noroeste 0 995.5 -2.2 26
2019-08-06 17:00:00 37.2 11 Oeste 24 Oeste 0 996.1 -2.1 26
2019-08-06 16:00:00 36.7 13 Oeste 24 Oeste 0 996.9 -2 26
2019-08-06 15:00:00 35.7 10 Sudoeste 21 Sudoeste 0 997.7 -1.9 31
2019-08-06 14:00:00 34.4 8 Sudoeste 18 Sur 0 998.2 -1.7 35
2019-08-06 13:00:00 32.2 6 Sudeste 16 Sudeste 0 998.9 -1 38
2019-08-06 12:00:00 30 0 Calma 10 Norte 0 999.6 0 43
2019-08-06 11:00:00 26.1 4 Norte 13 Norte 0 999.9 0.3 50
2019-08-06 10:00:00 23.8 6 Este 10 Este 0 999.9 0.5 49
2019-08-06 09:00:00 20.7 4 Norte 7 Norte 0 999.6 0.2 52
2019-08-06 08:00:00 17.4 2 Nordeste 5 Sudeste 0 999.6 0.2 53
2019-08-06 07:00:00 17.9 2 Sur 5 Sur 0 999.4 0 50
2019-08-06 06:00:00 18.8 0 Calma 6 Sur 0 999.4 0.2 49
2019-08-06 05:00:00 19.8 3 Noroeste 11 Noroeste 0 999.4 0.1 46
2019-08-06 04:00:00 21.4 8 Noroeste 9 Noroeste 0 999.4 0.4 42
2019-08-06 03:00:00 23.9 3 Sur 14 Sudoeste 0 999.2 0.5 40
2019-08-06 02:00:00 24.8 12 Sudoeste 32 Sudoeste 0 999.3 1.2 38
2019-08-06 01:00:00 25.3 20 Sudoeste 35 Sudoeste 0 999 1.8 40
2019-08-06 00:00:00 26.2 23 Sudoeste 37 Sudoeste 0 998.7 2.3 40
2019-08-05 23:00:00 27.6 29 Sudoeste 38 Oeste 0 998.1 2 39
2019-08-05 22:00:00 30.1 26 Sudoeste 36 Sudoeste 0 997.2 1.2 35
2019-08-05 21:00:00 33.1 24 Sudoeste 36 Sudoeste 0 996.4 0.3 32
2019-08-05 20:00:00 36.2 21 Oeste 39 Sudoeste 0 996.1 -0.3 30
2019-08-05 19:00:00 37.9 15 Oeste 35 Oeste 0 996 -0.9 28
2019-08-05 18:00:00 38.1 14 Oeste 30 Oeste 0 996.1 -1.4 29
2019-08-05 17:00:00 38.2 14 Oeste 29 Sudoeste 0 996.4 -2 30
2019-08-05 16:00:00 37.1 7 Oeste 27 Oeste 0 996.9 -2 32
2019-08-05 15:00:00 36.1 7 Noroeste 17 Sudoeste 0 997.5 -2 34
2019-08-05 14:00:00 34.8 5 Sudoeste 14 Noroeste 0 998.4 -1.4 37
2019-08-05 13:00:00 32.6 3 Este 17 Noroeste 0 998.9 -0.9 41
2019-08-05 12:00:00 30.3 5 Noroeste 13 Norte 0 999.5 -0.4 45
2019-08-05 11:00:00 28.1 3 Norte 11 Norte 0 999.8 0.1 50
2019-08-05 10:00:00 25 3 Noroeste 6 Noroeste 0 999.8 0.5 54
2019-08-05 09:00:00 22.3 0 Calma 5 Sudoeste 0 999.9 0.7 58
2019-08-05 08:00:00 19.3 3 Sudeste 4 Sudeste 0 999.7 0.3 58
2019-08-05 07:00:00 18.9 2 Sur 5 Sudeste 0 999.3 -0.2 60
2019-08-05 06:00:00 19.5 2 Sudeste 4 Sudeste 0 999.2 -0.4 58
2019-08-05 05:00:00 20.5 0 Calma 8 Sur 0 999.4 -0.5 57
2019-08-05 04:00:00 21.2 5 Sudeste 12 Sudoeste 0 999.5 -0.3 55
2019-08-05 03:00:00 22.6 7 Oeste 13 Sudoeste 0 999.6 0.3 52
2019-08-05 02:00:00 23.9 5 Sudoeste 10 Este 0 999.9 1.2 50
2019-08-05 01:00:00 24.9 4 Nordeste 30 Sudoeste 0 999.8 1.9 50
2019-08-05 00:00:00 26.2 23 Sudoeste 33 Sudoeste 0 999.3 1.9 48
2019-08-04 23:00:00 28.2 14 Oeste 34 Sudoeste 0 998.7 1.8 42
2019-08-04 22:00:00 30.8 21 Oeste 35 Sudoeste 0 997.9 0.8 38
2019-08-04 21:00:00 34.5 12 Oeste 23 Sudoeste 0 997.4 0.3 31
2019-08-04 20:00:00 36.5 15 Oeste 26 Sudoeste 0 996.9 -0.4 29
2019-08-04 19:00:00 37.1 14 Oeste 30 Oeste 0 997.1 -1 30
2019-08-04 18:00:00 37 10 Oeste 27 Oeste 0 997.1 -1.5 33
2019-08-04 17:00:00 37 7 Oeste 26 Oeste 0 997.3 -2 34
2019-08-04 16:00:00 35.7 9 Oeste 28 Oeste 0 998.1 -1.9 38
2019-08-04 15:00:00 34.8 7 Noroeste 19 Noroeste 0 998.6 -2 38
2019-08-04 14:00:00 33 4 Oeste 16 Oeste 0 999.3 -1.3 41
2019-08-04 13:00:00 31.2 4 Noroeste 15 Sudoeste 0 1000 -0.8 44
2019-08-04 12:00:00 28.7 3 Sudoeste 14 Sur 0 1000.6 -0.2 49
2019-08-04 11:00:00 26.7 4 Sudoeste 15 Sudoeste 0 1000.6 0.2 52
2019-08-04 10:00:00 24.3 0 Calma 8 Nordeste 0 1000.8 0.6 56
2019-08-04 09:00:00 22.3 2 Este 5 Este 0 1000.8 1.1 57
2019-08-04 08:00:00 19.5 0 Calma 4 Oeste 0 1000.4 0.7 60
2019-08-04 07:00:00 19.1 0 Calma 6 Noroeste 0 1000.2 0.6 57
2019-08-04 06:00:00 20.2 4 Noroeste 6 Noroeste 0 999.7 0.2 57
2019-08-04 05:00:00 20.8 3 Noroeste 15 Sur 0 999.7 0.1 56
2019-08-04 04:00:00 22 9 Sur 15 Sudoeste 0 999.6 0.4 55
2019-08-04 03:00:00 23 8 Sur 18 Sudoeste 0 999.5 0.6 51
2019-08-04 02:00:00 23.4 9 Sudoeste 27 Oeste 0 999.6 1.1 50
2019-08-04 01:00:00 24.7 18 Sudoeste 32 Sudoeste 0 999.2 1.5 49
2019-08-04 00:00:00 26.2 21 Sudoeste 33 Sudoeste 0 998.9 1.9 43
2019-08-03 23:00:00 28 17 Sudoeste 32 Sudoeste 0 998.5 1.7 37
2019-08-03 22:00:00 30 13 Sudoeste 26 Oeste 0 997.7 1 33
2019-08-03 21:00:00 32.4 15 Oeste 30 Sudoeste 0 997 -0.2 33
2019-08-03 20:00:00 34.5 16 Oeste 32 Oeste 0 996.8 -0.8 32
2019-08-03 19:00:00 35.3 22 Oeste 32 Oeste 0 996.7 -1.4 33
2019-08-03 18:00:00 35.7 17 Oeste 32 Sudoeste 0 997.2 -1.3 33
2019-08-03 17:00:00 36.1 16 Oeste 27 Oeste 0 997.6 -1.2 33
2019-08-03 16:00:00 35.5 12 Oeste 31 Sudoeste 0 998.1 -1.2 33
2019-08-03 15:00:00 34.9 9 Oeste 25 Oeste 0 998.5 -1 33
2019-08-03 14:00:00 34 7 Oeste 24 Sudoeste 0 998.8 -1 33
2019-08-03 13:00:00 32.6 4 Noroeste 17 Oeste 0 999.3 -0.6 33
2019-08-03 12:00:00 30.1 3 Nordeste 12 Este 0 999.5 -0.1 38
2019-08-03 11:00:00 27.2 4 Sudeste 8 Nordeste 0 999.8 0.2 41
2019-08-03 10:00:00 24.4 0 Calma 8 Sudeste 0 999.9 0.8 43
2019-08-03 09:00:00 20.5 5 Sudeste 7 Sudeste 0 999.6 0.7 46
2019-08-03 08:00:00 17.9 3 Sudeste 8 Sudeste 0 999.6 1.1 48
2019-08-03 07:00:00 18.4 0 Calma 6 Oeste 0 999.1 0.5 43
2019-08-03 06:00:00 19.7 2 Noroeste 7 Norte 0 998.9 0.1 41
2019-08-03 05:00:00 20.7 4 Sudoeste 8 Sudoeste 0 998.5 -0.2 40
2019-08-03 04:00:00 20.8 0 Calma 13 Sur 0 998.6 -0.1 39
2019-08-03 03:00:00 22.9 10 Sur 13 Sur 0 998.8 0.3 38
2019-08-03 02:00:00 23.8 3 Nordeste 19 Sudoeste 0 998.7 0.6 38
2019-08-03 01:00:00 25.6 13 Sudoeste 32 Sudoeste 0 998.7 1.3 36
2019-08-03 00:00:00 26.7 23 Sudoeste 30 Sudoeste 0 998.5 1.5 34
2019-08-02 23:00:00 28.3 19 Sudoeste 30 Sudoeste 0 998.1 1.4 30
2019-08-02 22:00:00 30.8 17 Oeste 30 Oeste 0 997.4 0.7 28
2019-08-02 21:00:00 34.1 16 Oeste 28 Oeste 0 997 0 27
2019-08-02 20:00:00 36.4 14 Oeste 35 Oeste 0 996.7 -0.6 26
2019-08-02 19:00:00 36.9 17 Oeste 29 Sudoeste 0 996.7 -1.1 27
2019-08-02 18:00:00 38 12 Sudoeste 26 Sudoeste 0 997 -1.3 25
2019-08-02 17:00:00 37.6 14 Oeste 30 Oeste 0 997.3 -1.4 27
2019-08-02 16:00:00 37 5 Noroeste 22 Oeste 0 997.8 -1.4 27
2019-08-02 15:00:00 36.7 8 Sudoeste 21 Sudoeste 0 998.3 -1.3 30
2019-08-02 14:00:00 35.3 6 Oeste 14 Norte 0 998.7 -1.1 31
2019-08-02 13:00:00 33.3 0 Calma 12 Norte 0 999.2 -0.8 35
2019-08-02 12:00:00 30.2 3 Este 13 Sudeste 0 999.6 -0.1 40
2019-08-02 11:00:00 27.4 0 Calma 9 Sudeste 0 999.8 0.5 44
2019-08-02 10:00:00 24.1 3 Sudeste 7 Este 0 1000 0.8 51
2019-08-02 09:00:00 20.8 3 Sudeste 5 Sudeste 0 999.7 0.8 55
2019-08-02 08:00:00 18.3 0 Calma 5 Sudeste 0 999.3 0.4 56
2019-08-02 07:00:00 18.5 0 Calma 4 Sur 0 999.2 0.5 55
2019-08-02 06:00:00 19.1 0 Calma 10 Sudeste 0 998.9 0.4 53
2019-08-02 05:00:00 20.6 3 Sudeste 6 Sudeste 0 998.9 0.2 49
2019-08-02 04:00:00 23.1 0 Calma 23 Sudoeste 0 998.7 0.1 46
2019-08-02 03:00:00 23.8 11 Sudoeste 22 Sudoeste 0 998.5 0.6 45
2019-08-02 02:00:00 23.8 12 Sudoeste 22 Sudoeste 0 998.7 1.1 45
2019-08-02 01:00:00 25.1 9 Sudoeste 35 Oeste 0 998.6 1.8 44
2019-08-02 00:00:00 26.6 24 Oeste 41 Oeste 0 997.9 2.1 45
2019-08-01 23:00:00 28.7 17 Oeste 33 Oeste 0 997.6 2.3 47
2019-08-01 22:00:00 30.8 17 Oeste 35 Oeste 0 996.8 1.5 43
2019-08-01 21:00:00 34.3 16 Sudoeste 31 Sudoeste 0 995.8 0.3 33
2019-08-01 20:00:00 35.9 12 Oeste 21 Sudoeste 0 995.3 -0.8 33
2019-08-01 19:00:00 36.3 7 Oeste 23 Sudoeste 0 995.3 -1.5 33
2019-08-01 18:00:00 36 8 Noroeste 23 Oeste 0 995.5 -1.7 36
2019-08-01 17:00:00 35.8 6 Sudoeste 24 Noroeste 0 996.1 -1.8 38
2019-08-01 16:00:00 34.8 12 Oeste 24 Oeste 0 996.8 -1.7 40
2019-08-01 15:00:00 33.5 8 Oeste 20 Sudoeste 0 997.2 -1 44
2019-08-01 14:00:00 32.5 10 Noroeste 21 Oeste 0 997.9 -0.8 48
2019-08-01 13:00:00 31 6 Noroeste 15 Noroeste 0 998.5 -0.1 52
2019-08-01 12:00:00 29.4 5 Norte 18 Norte 0 998.2 -0.1 58
2019-08-01 11:00:00 27.8 4 Noroeste 11 Noroeste 0 998.7 0.7 62
2019-08-01 10:00:00 26.4 6 Sur 11 Sur 0 998.6 0.7 66
2019-08-01 09:00:00 23.9 5 Sudeste 8 Este 0 998.3 0.4 72
2019-08-01 08:00:00 22.1 0 Calma 3 Sudeste 0 998 0.3 74
2019-08-01 07:00:00 22.3 0 Calma 8 Sudoeste 0 997.9 0.2 70
2019-08-01 06:00:00 23.1 7 Sudoeste 14 Sur 0 997.9 0.1 67
2019-08-01 05:00:00 23.7 8 Sur 15 Sudoeste 0 997.7 0.1 66
2019-08-01 04:00:00 24.4 8 Sudoeste 17 Sudoeste 0 997.7 0.2 64
2019-08-01 03:00:00 25.2 13 Sudoeste 21 Oeste 0 997.8 0.6 63
2019-08-01 02:00:00 25.6 12 Sudoeste 19 Oeste 0 997.6 0.8 60
2019-08-01 01:00:00 25.9 13 Sur 21 Sudoeste 0 997.5 2 55
2019-08-01 00:00:00 26.7 17 Sudoeste 33 Sudoeste 0 997.2 2.9 54
2019-07-31 23:00:00 27.7 21 Sur 39 Sur 0 996.8 3.1 52
2019-07-31 22:00:00 28.9 23 Sur 37 Sur 0 995.5 2.1 49
2019-07-31 21:00:00 32 21 Sur 35 Sur 0 994.3 0.3 41
2019-07-31 20:00:00 36 11 Oeste 23 Oeste 0 993.7 -0.8 32
2019-07-31 19:00:00 36.3 12 Este 35 Sudeste 0 993.4 -2.1 34
2019-07-31 18:00:00 36 24 Sudeste 34 Sudeste 0 994 -2 34
2019-07-31 17:00:00 36.6 14 Sudeste 38 Sudeste 0 994.5 -2.1 33
2019-07-31 16:00:00 36.1 22 Sudeste 32 Sudeste 0 995.5 -1.9 33
2019-07-31 15:00:00 35.6 24 Sudeste 36 Sudeste 0 996 -1.9 35
2019-07-31 14:00:00 34.3 11 Sur 27 Sudeste 0 996.6 -1.2 38
2019-07-31 13:00:00 33.4 13 Sur 31 Sur 0 997.4 -0.2 40
2019-07-31 12:00:00 31.8 9 Sur 27 Sur 0 997.9 0 41
2019-07-31 11:00:00 29.6 13 Sudeste 32 Sur 0 997.8 0.6 44
2019-07-31 10:00:00 25.6 5 Sudeste 12 Sudeste 0 997.6 0.8 48
2019-07-31 09:00:00 21.4 3 Sudeste 10 Sudeste 0 997.9 1.2 47
2019-07-31 08:00:00 18.9 3 Noroeste 5 Noroeste 0 997.2 0.6 46
2019-07-31 07:00:00 19.2 0 Calma 5 Sudeste 0 996.8 0 45
2019-07-31 06:00:00 20 0 Calma 5 Norte 0 996.7 0 46
2019-07-31 05:00:00 20.4 0 Calma 11 Sur 0 996.6 -0.4 41
2019-07-31 04:00:00 21.8 0 Calma 13 Sur 0 996.8 -0.2 35
2019-07-31 03:00:00 21.6 0 Calma 8 Noroeste 0 996.7 0 31
2019-07-31 02:00:00 21.7 0 Calma 12 Sudoeste 0 997 0.9 32
2019-07-31 01:00:00 24.7 2 Noroeste 12 Noroeste 0 997 1.8 28
2019-07-31 00:00:00 26 10 Noroeste 12 Noroeste 0 996.7 1.9 27
2019-07-30 23:00:00 28.7 5 Noroeste 18 Oeste 0 996.1 1.2 26
2019-07-30 22:00:00 30.3 10 Oeste 13 Noroeste 0 995.2 0.1 25
2019-07-30 21:00:00 34.3 7 Noroeste 13 Norte 0 994.8 -0.9 25
2019-07-30 20:00:00 36.1 8 Noroeste 18 Noroeste 0 994.9 -1.3 25
2019-07-30 19:00:00 36.5 10 Noroeste 21 Noroeste 0 995.1 -1.7 26
2019-07-30 18:00:00 36 6 Nordeste 18 Este 0 995.7 -1.8 28
2019-07-30 17:00:00 35.8 6 Noroeste 16 Noroeste 0 996.2 -2.2 29
2019-07-30 16:00:00 34.9 5 Norte 17 Nordeste 0 996.8 -2.2 30
2019-07-30 15:00:00 34.1 3 Norte 23 Norte 0 997.5 -1.7 32
2019-07-30 14:00:00 32.4 7 Norte 21 Norte 0 998.4 -1.1 34
2019-07-30 13:00:00 31 6 Norte 23 Norte 0 999 -0.5 36
2019-07-30 12:00:00 28.7 7 Norte 16 Norte 0 999.2 -0.5 39
2019-07-30 11:00:00 26.7 4 Nordeste 13 Nordeste 0 999.5 0.1 42
2019-07-30 10:00:00 24.1 6 Norte 15 Norte 0 999.5 0.5 46
2019-07-30 09:00:00 21.7 8 Norte 15 Norte 0 999.7 1 48
2019-07-30 08:00:00 19.9 5 Norte 15 Noroeste 0 999.4 1 49
2019-07-30 07:00:00 20 13 Noroeste 18 Noroeste 0 999 0.8 49
2019-07-30 06:00:00 20.9 15 Noroeste 21 Noroeste 0 998.7 0.3 46
2019-07-30 05:00:00 22.1 16 Noroeste 22 Noroeste 0 998.4 0.2 45
2019-07-30 04:00:00 22.8 15 Noroeste 19 Noroeste 0 998.2 0.2 43
2019-07-30 03:00:00 23.7 14 Noroeste 19 Noroeste 0 998.4 0.6 42
2019-07-30 02:00:00 25.1 15 Noroeste 21 Noroeste 0 998.2 1.1 43
2019-07-30 01:00:00 25.4 0 Calma 19 Oeste 0 998 1.9 50
2019-07-30 00:00:00 26.6 11 Oeste 26 Sudoeste 0 997.8 2.2 50
2019-07-29 23:00:00 27.9 14 Oeste 31 Sudoeste 0 997.1 1.9 46
2019-07-29 22:00:00 29.6 21 Oeste 35 Sudoeste 0 996.1 0.8 39
2019-07-29 21:00:00 32.7 17 Oeste 32 Sudoeste 0 995.6 0.1 32
2019-07-29 20:00:00 35 11 Oeste 26 Sudoeste 0 995.2 -0.8 29
2019-07-29 19:00:00 35.4 11 Sudoeste 22 Noroeste 0 995.3 -1.1 29
2019-07-29 18:00:00 35 11 Noroeste 28 Este 0 995.5 -1.7 30
2019-07-29 17:00:00 35 7 Noroeste 26 Noroeste 0 996 -1.6 32
2019-07-29 16:00:00 34.1 8 Noroeste 25 Noroeste 0 996.4 -1.9 34
2019-07-29 15:00:00 32.8 12 Noroeste 27 Oeste 0 997.2 -1.2 36
2019-07-29 14:00:00 31.7 0 Calma 16 Oeste 0 997.6 -1 35
2019-07-29 13:00:00 30 0 Calma 13 Noroeste 0 998.3 -0.4 40
2019-07-29 12:00:00 27.5 4 Oeste 14 Oeste 0 998.4 -0.1 50
2019-07-29 11:00:00 25.6 3 Noroeste 12 Oeste 0 998.6 0.5 59
2019-07-29 10:00:00 23.5 7 Oeste 17 Sudoeste 0 998.7 1.2 68
2019-07-29 09:00:00 21.3 0 Calma 2 Sudeste 0 998.5 1.3 70
2019-07-29 08:00:00 18.3 0 Calma 4 Sur 0 998.1 1 73
2019-07-29 07:00:00 18 0 Calma 0 Calma 0 997.5 0.5 72
2019-07-29 06:00:00 18.7 0 Calma 7 Sur 0 997.2 0.3 71
2019-07-29 05:00:00 19.1 0 Calma 10 Oeste 0 997.1 -0.1 69
2019-07-29 04:00:00 20.2 3 Sur 12 Sudoeste 0 997 0.3 67
2019-07-29 03:00:00 20.8 9 Sudoeste 14 Sudoeste 0 996.9 0.6 66
2019-07-29 02:00:00 21.4 8 Sudoeste 28 Sudoeste 0 997.2 1.3 66
2019-07-29 01:00:00 22 19 Sudoeste 35 Sudoeste 0 996.7 1.9 66
2019-07-29 00:00:00 23.3 22 Sudoeste 37 Oeste 0 996.3 2.3 61
2019-07-28 23:00:00 24.9 21 Oeste 37 Oeste 0 995.9 2.4 57
2019-07-28 22:00:00 26.9 19 Oeste 40 Oeste 0 994.8 1.3 51
2019-07-28 21:00:00 30.8 18 Sudoeste 27 Oeste 0 994 0.2 38
2019-07-28 20:00:00 32.7 13 Oeste 23 Oeste 0 993.5 -0.7 34
2019-07-28 19:00:00 33.1 8 Oeste 24 Oeste 0 993.5 -1.3 35
2019-07-28 18:00:00 32.6 11 Sudoeste 25 Oeste 0 993.8 -1.5 38
2019-07-28 17:00:00 32.7 11 Sudoeste 26 Sudoeste 0 994.2 -1.6 40
2019-07-28 16:00:00 32.2 6 Oeste 17 Nordeste 0 994.8 -1.7 43
2019-07-28 15:00:00 31 4 Sur 18 Sudoeste 0 995.3 -1.6 47
2019-07-28 14:00:00 29.1 6 Sudeste 16 Sudoeste 0 995.8 -1.4 53
2019-07-28 13:00:00 27.7 3 Nordeste 21 Este 0 996.5 -1 60
2019-07-28 12:00:00 25 5 Este 14 Este 0 996.9 -0.5 66
2019-07-28 11:00:00 24 7 Este 12 Nordeste 0 997.2 0 70
2019-07-28 10:00:00 21.6 4 Sur 10 Sur 0 997.5 0.5 76
2019-07-28 09:00:00 21 0 Calma 15 Oeste 0 997.4 0.5 79
2019-07-28 08:00:00 20.1 6 Oeste 15 Oeste 0 997.2 0.5 81
2019-07-28 07:00:00 20.1 5 Oeste 12 Sudoeste 0 997 0.1 82
2019-07-28 06:00:00 20.2 6 Oeste 14 Sudoeste 0 996.9 -0.2 82
2019-07-28 05:00:00 20 6 Oeste 16 Oeste 0 996.7 -0.6 82
2019-07-28 04:00:00 20.4 10 Sudoeste 21 Sudoeste 0 996.9 -0.4 79
2019-07-28 03:00:00 20.6 14 Sudoeste 25 Sudoeste 0 997.1 -0.5 79
2019-07-28 02:00:00 20.8 17 Oeste 30 Sudoeste 0 997.3 0.1 78
2019-07-28 01:00:00 21.2 17 Oeste 33 Sudoeste 0 997.3 0.8 77
2019-07-28 00:00:00 21.8 21 Sudoeste 39 Sudoeste 0 997.6 1.8 76
2019-07-27 23:00:00 22.6 19 Sudoeste 33 Sudoeste 0 997.2 1.4 73
2019-07-26 12:00:00 27.3 14 Oeste 26 Oeste 0 999.9 0.1 65
2019-07-26 11:00:00 25.5 13 Oeste 25 Oeste 0 1000 0.6 71
2019-07-26 10:00:00 24.1 12 Oeste 29 Oeste 0 1000.3 1.2 74
2019-07-26 09:00:00 22.5 14 Oeste 27 Oeste 0 999.8 0.8 77
2019-07-26 08:00:00 21.5 16 Oeste 25 Oeste 0 999.4 0.4 77
2019-07-26 07:00:00 21.3 8 Oeste 17 Oeste 0 999.1 0.1 75
2019-07-26 06:00:00 21.7 6 Sudoeste 25 Sudoeste 0 999 -0.5 71
2019-07-26 05:00:00 22 12 Sudoeste 26 Sudoeste 0 999 -0.3 68
2019-07-26 04:00:00 22.5 21 Sudoeste 30 Sudoeste 0 999 -0.3 65
2019-07-26 03:00:00 23.2 8 Oeste 24 Sudoeste 0 999.5 0.1 62
2019-07-26 02:00:00 23.7 15 Sudoeste 25 Sudoeste 0 999.3 0.7 63
2019-07-26 01:00:00 24.3 12 Sudoeste 29 Sudoeste 0 999.3 1.3 57
2019-07-26 00:00:00 25 18 Sudoeste 37 Sudoeste 0 999.4 1.9 57
2019-07-25 23:00:00 26.4 30 Sudoeste 39 Sudoeste 0 998.6 1.5 55
2019-07-25 22:00:00 29.1 20 Sudoeste 34 Sudoeste 0 998 1.2 44
2019-07-25 21:00:00 31.5 17 Oeste 35 Oeste 0 997.5 0.7 38
2019-07-25 20:00:00 33.1 23 Oeste 43 Oeste 0 997.1 0.3 43
2019-07-25 19:00:00 34.7 22 Oeste 39 Oeste 0 996.8 -0.5 40
2019-07-25 18:00:00 36.4 18 Oeste 36 Oeste 0 996.8 -0.9 35
2019-07-25 17:00:00 37.2 15 Oeste 35 Oeste 0 996.8 -1.6 34
2019-07-25 16:00:00 36.7 10 Oeste 31 Oeste 0 997.3 -1.6 34
2019-07-25 15:00:00 36.2 7 Oeste 24 Sudoeste 0 997.7 -1.4 35
2019-07-25 14:00:00 34.7 5 Sudoeste 17 Sur 0 998.4 -1 38
2019-07-25 13:00:00 33.7 4 Oeste 14 Oeste 0 998.9 -0.6 41
2019-07-25 12:00:00 32 0 Calma 13 Noroeste 0 999.1 -0.5 46
2019-07-25 11:00:00 29.9 4 Norte 11 Noroeste 0 999.4 0.3 52
2019-07-25 10:00:00 27.3 3 Este 8 Sudeste 0 999.5 0.7 63
2019-07-25 09:00:00 24.5 4 Sudeste 8 Sudeste 0 999.6 0.9 68
2019-07-25 08:00:00 21.8 4 Sudeste 7 Sur 0 999.1 0.3 72
2019-07-25 07:00:00 21.9 4 Sudeste 14 Sur 0 998.8 0 71
2019-07-25 06:00:00 23.1 10 Sur 13 Sur 0 998.7 -0.4 68
2019-07-25 05:00:00 23.7 6 Sur 9 Sur 0 998.8 -0.1 67
2019-07-25 04:00:00 24.8 5 Sudoeste 15 Oeste 0 998.8 0 63
2019-07-25 03:00:00 25.9 10 Sudoeste 21 Sudoeste 0 999.1 0.2 60
2019-07-25 02:00:00 26.9 16 Oeste 31 Oeste 0 998.9 0.8 57
2019-07-25 01:00:00 27.9 13 Oeste 31 Sudoeste 0 998.8 2.2 54
2019-07-25 00:00:00 29.1 24 Sudoeste 31 Sudoeste 0 998.9 3.1 52
2019-07-24 23:00:00 31.3 17 Sudoeste 35 Sudoeste 0 998.1 2.8 47
2019-07-24 22:00:00 33.4 21 Sudoeste 33 Sudoeste 0 996.6 1.1 40
2019-07-24 21:00:00 35.6 15 Oeste 28 Oeste 0 995.8 -0.4 36
2019-07-24 20:00:00 38.1 10 Oeste 21 Oeste 0 995.3 -1.2 30
2019-07-24 19:00:00 38.5 9 Oeste 22 Noroeste 0 995.5 -1.6 30
2019-07-24 18:00:00 39 10 Sudoeste 26 Sudoeste 0 996.2 -1.6 30
2019-07-24 17:00:00 38.9 12 Sudoeste 36 Este 0 996.5 -2.1 30
2019-07-24 16:00:00 38.7 13 Sudoeste 30 Sudoeste 0 997.1 -1.9 30
2019-07-24 15:00:00 36.7 5 Este 17 Sudeste 0 997.8 -1.7 36
2019-07-24 14:00:00 35 3 Sudeste 20 Sudeste 0 998.6 -1.1 40
2019-07-24 13:00:00 33.9 5 Este 13 Sudeste 0 999 -0.6 45
2019-07-24 12:00:00 31.5 6 Sur 12 Sudeste 0 999.5 0 52
2019-07-24 11:00:00 29.3 5 Sur 13 Sur 0 999.7 0.4 59
2019-07-24 10:00:00 27.1 4 Sur 9 Sudeste 0 999.6 0.5 65
2019-07-24 09:00:00 24.5 4 Sudeste 7 Sudeste 0 999.5 0.5 71
2019-07-24 08:00:00 22.8 0 Calma 5 Sur 0 999.3 0.2 73
2019-07-24 07:00:00 22.5 0 Calma 6 Este 0 999.1 -0.5 72
2019-07-24 06:00:00 23.4 0 Calma 14 Sur 0 999 -1 69
2019-07-24 05:00:00 24.5 12 Sur 16 Sur 0 999.1 -1.1 67
2019-07-24 04:00:00 24.7 6 Sur 12 Sur 0 999.6 -0.4 66
2019-07-24 03:00:00 25.8 6 Sudeste 14 Sur 0 1000 0.4 62
2019-07-24 02:00:00 26.8 11 Sudoeste 26 Sudoeste 0 1000.2 1.1 59
2019-07-24 01:00:00 27.6 15 Sudoeste 26 Sudoeste 0 1000 1.9 57
2019-07-24 00:00:00 28.5 18 Sudoeste 28 Oeste 0 999.6 2.3 55
2019-07-23 23:00:00 30.2 14 Sudoeste 28 Oeste 0 999.1 2.5 49
2019-07-23 22:00:00 32.1 22 Sudoeste 32 Sudoeste 0 998.1 1.4 46
2019-07-23 21:00:00 34.5 19 Oeste 39 Sudoeste 0 997.3 0.5 41
2019-07-23 20:00:00 37.3 16 Oeste 31 Oeste 0 996.6 -0.7 35
2019-07-23 19:00:00 38.8 14 Sudoeste 29 Sudoeste 0 996.7 -1.1 32
2019-07-23 18:00:00 39.5 13 Sudoeste 40 Sudeste 0 996.8 -1.5 30
2019-07-23 17:00:00 39.6 4 Sur 28 Sur 0 997.3 -2 30
2019-07-23 16:00:00 39.4 20 Sur 38 Sudoeste 0 997.8 -1.9 30
2019-07-23 15:00:00 37.4 3 Sudeste 23 Sudeste 0 998.3 -1.8 36
2019-07-23 14:00:00 34.9 3 Este 17 Sudeste 0 999.3 -1.1 41
2019-07-23 13:00:00 33.2 5 Este 16 Este 0 999.7 -- 45
2019-07-23 12:00:00 31.4 6 Sudeste 17 Sudeste 0 1000.1 -- 50
2019-07-23 11:00:00 29.5 6 Sudeste -- -- -- 1000.4 -- 55
2019-07-23 10:00:00 -- 4 Este 10 Este 0 -- -- --
2019-07-23 09:00:00 -- 3 Sudeste 6 Sur 0 -- -- --
2019-07-23 08:00:00 -- 2 Este 8 Sudeste 0 -- -- --
2019-07-23 07:00:00 -- 4 Sudeste 8 Este 0 -- -- --
2019-07-23 06:00:00 -- 4 Sur 6 Sur 0 -- -- --
2019-07-23 05:00:00 -- 2 Este 11 Sudoeste 0 -- -- --
2019-07-23 04:00:00 -- 6 Sudoeste 9 Sudoeste 0 -- -- --
2019-07-23 03:00:00 -- 5 Norte 14 Oeste 0 -- -- --
2019-07-23 02:00:00 -- 10 Sudoeste 18 Sudoeste 0 -- -- --
2019-07-23 01:00:00 -- 4 Sudoeste 24 Sudoeste 0 -- -- --
2019-07-23 00:00:00 -- 20 Sudoeste 35 Oeste 0 -- -- --
2019-07-22 23:00:00 -- 16 Sur 27 Sur 0 -- -- --
2019-07-22 22:00:00 -- 18 Sur 32 Sur 0 -- -- --
2019-07-22 21:00:00 -- 20 Sur 33 Sur 0 -- -- --
2019-07-22 20:00:00 -- 21 Sur 34 Sudoeste 0 -- -- --
2019-07-22 19:00:00 -- 21 Sur 32 Sur 0 -- -- --
2019-07-22 18:00:00 -- 21 Sur 33 Sur 0 -- -- --
2019-07-22 17:00:00 -- 9 Sudeste 21 Sur 0 -- -- --
2019-07-22 16:00:00 -- 6 Sur 20 Sudeste 0 -- -- --
2019-07-22 15:00:00 -- 6 Sudoeste 20 Sudoeste 0 -- -- --
2019-07-22 14:00:00 -- 5 Sudeste 18 Sudeste 0 -- -- --
2019-07-22 13:00:00 -- 8 Este 19 Sudeste 0 -- -- --
2019-07-22 12:00:00 -- 8 Sudeste 16 Este 0 -- -- --
2019-07-22 11:00:00 -- 6 Este 14 Este 0 -- -- --
2019-07-22 10:00:00 -- 2 Este 9 Este 0 -- -- --
2019-07-22 09:00:00 -- 3 Sudeste 10 Sudeste 0 -- -- --
2019-07-22 08:00:00 -- 0 Calma 5 Sudoeste 0 -- -- --
2019-07-22 07:00:00 -- 4 Sudoeste 9 Sur 0 -- -- --
2019-07-22 06:00:00 -- 4 Sudoeste 13 Noroeste 0 -- -- --
2019-07-22 05:00:00 -- 8 Noroeste 13 Noroeste 0 -- -- --
2019-07-22 04:00:00 -- 9 Noroeste 14 Noroeste 0 -- -- --
2019-07-22 03:00:00 -- 5 Oeste 10 Sudoeste 0 -- -- --
2019-07-22 02:00:00 -- 5 Sudoeste 13 Oeste 0 -- -- --
2019-07-22 01:00:00 -- 9 Sudoeste 23 Sudoeste 0 -- -- --
2019-07-22 00:00:00 -- 21 Sudoeste 36 Oeste 0 -- -- --
2019-07-21 23:00:00 -- 23 Sudoeste 33 Sudoeste 0 -- -- --
2019-07-21 22:00:00 -- 17 Oeste 32 Oeste 0 -- -- --
2019-07-21 21:00:00 -- 17 Oeste 34 Oeste 0 -- -- --
2019-07-21 20:00:00 -- 15 Oeste 30 Sudoeste 0 -- -- --
2019-07-21 19:00:00 -- 11 Oeste 28 Oeste 0 -- -- --
2019-07-21 18:00:00 -- 10 Oeste 20 Sudoeste 0 -- -- --
2019-07-21 17:00:00 -- 14 Sudoeste 22 Sudoeste 0 -- -- --
2019-07-21 16:00:00 -- 8 Sudoeste 21 Oeste 0 -- -- --
2019-07-21 15:00:00 -- 6 Sudoeste 20 Sudeste 0 -- -- --
2019-07-21 14:00:00 -- 4 Sur 18 Sudeste 0 -- -- --
2019-07-21 13:00:00 -- 7 Sudeste 15 Sur 0 -- -- --
2019-07-21 12:00:00 -- 3 Este 17 Este 0 -- -- --
2019-07-21 11:00:00 -- 5 Sudeste 14 Sudeste 0 -- -- --
2019-07-21 10:00:00 -- 4 Sudeste 12 Sudeste 0 -- -- --
2019-07-21 09:00:00 -- 4 Sudeste 6 Sudeste 0 -- -- --
2019-07-21 08:00:00 -- 0 Calma 9 Noroeste 0 -- -- --
2019-07-21 07:00:00 -- 8 Noroeste 11 Noroeste 0 -- -- --
2019-07-21 06:00:00 -- 0 Calma 6 Oeste 0 -- -- --
2019-07-21 05:00:00 -- 0 Calma 6 Noroeste 0 -- -- --
2019-07-21 04:00:00 -- 4 Noroeste 10 Oeste 0 -- -- --
2019-07-21 03:00:00 -- 6 Oeste 10 Sudoeste 0 -- -- --
2019-07-21 02:00:00 -- 7 Sudoeste 15 Sudoeste 0 -- -- --
2019-07-21 01:00:00 -- 12 Sudoeste 37 Sudoeste 0 -- -- --
2019-07-21 00:00:00 -- 22 Sudoeste 37 Sudoeste 0 -- -- --